sensor_id;sensor_type;location;lat;lon;timestamp;P1;durP1;ratioP1;P2;durP2;ratioP2
6973;SDS011;3527;52.376;8.990;2023-07-29T00:02:13;3.97;;;3.57;;
6973;SDS011;3527;52.376;8.990;2023-07-29T00:04:40;5.53;;;3.83;;
6973;SDS011;3527;52.376;8.990;2023-07-29T00:07:07;3.83;;;3.40;;
6973;SDS011;3527;52.376;8.990;2023-07-29T00:09:33;4.90;;;3.47;;
6973;SDS011;3527;52.376;8.990;2023-07-29T00:12:00;5.03;;;3.60;;
6973;SDS011;3527;52.376;8.990;2023-07-29T00:14:27;3.70;;;2.90;;
6973;SDS011;3527;52.376;8.990;2023-07-29T00:16:54;6.23;;;3.30;;
6973;SDS011;3527;52.376;8.990;2023-07-29T00:19:21;4.00;;;3.00;;
6973;SDS011;3527;52.376;8.990;2023-07-29T00:21:50;4.67;;;3.23;;
6973;SDS011;3527;52.376;8.990;2023-07-29T00:24:16;3.80;;;2.53;;
6973;SDS011;3527;52.376;8.990;2023-07-29T00:26:43;5.20;;;3.03;;
6973;SDS011;3527;52.376;8.990;2023-07-29T00:29:10;6.97;;;3.03;;
6973;SDS011;3527;52.376;8.990;2023-07-29T00:31:37;4.33;;;2.90;;
6973;SDS011;3527;52.376;8.990;2023-07-29T00:34:04;3.67;;;2.87;;
6973;SDS011;3527;52.376;8.990;2023-07-29T00:36:31;3.23;;;2.83;;
6973;SDS011;3527;52.376;8.990;2023-07-29T00:38:58;4.23;;;3.40;;
6973;SDS011;3527;52.376;8.990;2023-07-29T00:41:25;3.80;;;3.50;;
6973;SDS011;3527;52.376;8.990;2023-07-29T00:43:52;4.43;;;3.03;;
6973;SDS011;3527;52.376;8.990;2023-07-29T00:46:19;4.50;;;2.90;;
6973;SDS011;3527;52.376;8.990;2023-07-29T00:48:46;5.57;;;3.70;;
6973;SDS011;3527;52.376;8.990;2023-07-29T00:51:14;3.47;;;3.17;;
6973;SDS011;3527;52.376;8.990;2023-07-29T00:53:40;3.43;;;2.97;;
6973;SDS011;3527;52.376;8.990;2023-07-29T00:56:07;4.53;;;3.20;;
6973;SDS011;3527;52.376;8.990;2023-07-29T00:58:34;4.07;;;3.67;;
6973;SDS011;3527;52.376;8.990;2023-07-29T01:01:01;4.00;;;3.20;;
6973;SDS011;3527;52.376;8.990;2023-07-29T01:03:28;4.30;;;3.57;;
6973;SDS011;3527;52.376;8.990;2023-07-29T01:06:01;4.33;;;3.40;;
6973;SDS011;3527;52.376;8.990;2023-07-29T01:08:38;4.37;;;3.33;;
6973;SDS011;3527;52.376;8.990;2023-07-29T01:14:01;3.47;;;3.10;;
6973;SDS011;3527;52.376;8.990;2023-07-29T01:16:40;4.57;;;3.27;;
6973;SDS011;3527;52.376;8.990;2023-07-29T01:19:14;5.30;;;3.27;;
6973;SDS011;3527;52.376;8.990;2023-07-29T01:21:59;5.87;;;2.90;;
6973;SDS011;3527;52.376;8.990;2023-07-29T01:24:29;3.13;;;2.80;;
6973;SDS011;3527;52.376;8.990;2023-07-29T01:26:55;3.97;;;3.13;;
6973;SDS011;3527;52.376;8.990;2023-07-29T01:29:23;4.47;;;2.90;;
6973;SDS011;3527;52.376;8.990;2023-07-29T01:31:50;3.60;;;3.03;;
6973;SDS011;3527;52.376;8.990;2023-07-29T01:34:23;3.17;;;2.80;;
6973;SDS011;3527;52.376;8.990;2023-07-29T01:36:55;4.37;;;2.50;;
6973;SDS011;3527;52.376;8.990;2023-07-29T01:39:28;3.30;;;2.67;;
6973;SDS011;3527;52.376;8.990;2023-07-29T01:41:59;6.13;;;2.40;;
6973;SDS011;3527;52.376;8.990;2023-07-29T01:44:26;5.13;;;2.83;;
6973;SDS011;3527;52.376;8.990;2023-07-29T01:46:55;3.50;;;2.80;;
6973;SDS011;3527;52.376;8.990;2023-07-29T01:49:22;5.57;;;3.30;;
6973;SDS011;3527;52.376;8.990;2023-07-29T01:51:49;3.30;;;2.80;;
6973;SDS011;3527;52.376;8.990;2023-07-29T01:54:16;4.30;;;3.23;;
6973;SDS011;3527;52.376;8.990;2023-07-29T01:56:43;3.50;;;2.73;;
6973;SDS011;3527;52.376;8.990;2023-07-29T01:59:10;3.60;;;2.70;;
6973;SDS011;3527;52.376;8.990;2023-07-29T02:01:36;3.20;;;2.43;;
6973;SDS011;3527;52.376;8.990;2023-07-29T02:04:03;3.10;;;2.50;;
6973;SDS011;3527;52.376;8.990;2023-07-29T02:06:33;2.97;;;2.67;;
6973;SDS011;3527;52.376;8.990;2023-07-29T02:09:01;4.77;;;2.90;;
6973;SDS011;3527;52.376;8.990;2023-07-29T02:11:28;2.80;;;2.30;;
6973;SDS011;3527;52.376;8.990;2023-07-29T02:13:55;3.57;;;2.60;;
6973;SDS011;3527;52.376;8.990;2023-07-29T02:16:22;3.50;;;2.63;;
6973;SDS011;3527;52.376;8.990;2023-07-29T02:18:50;2.80;;;2.40;;
6973;SDS011;3527;52.376;8.990;2023-07-29T02:21:21;4.93;;;2.67;;
6973;SDS011;3527;52.376;8.990;2023-07-29T02:23:48;3.37;;;2.40;;
6973;SDS011;3527;52.376;8.990;2023-07-29T02:26:15;3.77;;;2.40;;
6973;SDS011;3527;52.376;8.990;2023-07-29T02:28:43;4.57;;;2.47;;
6973;SDS011;3527;52.376;8.990;2023-07-29T02:33:47;3.20;;;2.63;;
6973;SDS011;3527;52.376;8.990;2023-07-29T02:36:14;4.17;;;3.03;;
6973;SDS011;3527;52.376;8.990;2023-07-29T02:38:41;3.57;;;2.97;;
6973;SDS011;3527;52.376;8.990;2023-07-29T02:41:08;4.87;;;3.10;;
6973;SDS011;3527;52.376;8.990;2023-07-29T02:43:38;3.83;;;2.50;;
6973;SDS011;3527;52.376;8.990;2023-07-29T02:46:08;2.73;;;2.40;;
6973;SDS011;3527;52.376;8.990;2023-07-29T02:48:35;3.07;;;2.73;;
6973;SDS011;3527;52.376;8.990;2023-07-29T02:51:02;4.20;;;2.53;;
6973;SDS011;3527;52.376;8.990;2023-07-29T02:53:31;3.70;;;2.53;;
6973;SDS011;3527;52.376;8.990;2023-07-29T02:55:58;6.37;;;3.40;;
6973;SDS011;3527;52.376;8.990;2023-07-29T02:58:25;4.40;;;2.80;;
6973;SDS011;3527;52.376;8.990;2023-07-29T03:00:52;4.30;;;3.13;;
6973;SDS011;3527;52.376;8.990;2023-07-29T03:03:19;3.40;;;3.00;;
6973;SDS011;3527;52.376;8.990;2023-07-29T03:05:46;4.67;;;3.13;;
6973;SDS011;3527;52.376;8.990;2023-07-29T03:08:13;4.00;;;3.27;;
6973;SDS011;3527;52.376;8.990;2023-07-29T03:10:40;3.47;;;2.80;;
6973;SDS011;3527;52.376;8.990;2023-07-29T03:13:08;4.07;;;3.40;;
6973;SDS011;3527;52.376;8.990;2023-07-29T03:15:35;5.27;;;3.53;;
6973;SDS011;3527;52.376;8.990;2023-07-29T03:18:02;4.47;;;3.77;;
6973;SDS011;3527;52.376;8.990;2023-07-29T03:20:29;4.93;;;4.20;;
6973;SDS011;3527;52.376;8.990;2023-07-29T03:22:56;4.23;;;3.80;;
6973;SDS011;3527;52.376;8.990;2023-07-29T03:25:23;5.50;;;4.20;;
6973;SDS011;3527;52.376;8.990;2023-07-29T03:27:49;5.67;;;4.33;;
6973;SDS011;3527;52.376;8.990;2023-07-29T03:30:20;5.00;;;4.23;;
6973;SDS011;3527;52.376;8.990;2023-07-29T03:32:49;4.57;;;4.17;;
6973;SDS011;3527;52.376;8.990;2023-07-29T03:35:16;5.27;;;3.90;;
6973;SDS011;3527;52.376;8.990;2023-07-29T03:37:43;4.80;;;3.63;;
6973;SDS011;3527;52.376;8.990;2023-07-29T03:40:10;4.40;;;3.50;;
6973;SDS011;3527;52.376;8.990;2023-07-29T03:42:37;3.63;;;3.20;;
6973;SDS011;3527;52.376;8.990;2023-07-29T03:45:04;3.80;;;3.27;;
6973;SDS011;3527;52.376;8.990;2023-07-29T03:47:31;4.53;;;3.43;;
6973;SDS011;3527;52.376;8.990;2023-07-29T03:49:58;4.30;;;3.30;;
6973;SDS011;3527;52.376;8.990;2023-07-29T03:52:25;5.17;;;3.13;;
6973;SDS011;3527;52.376;8.990;2023-07-29T03:54:54;3.63;;;2.90;;
6973;SDS011;3527;52.376;8.990;2023-07-29T03:57:21;3.93;;;3.13;;
6973;SDS011;3527;52.376;8.990;2023-07-29T03:59:48;3.63;;;3.27;;
6973;SDS011;3527;52.376;8.990;2023-07-29T04:02:14;3.57;;;3.13;;
6973;SDS011;3527;52.376;8.990;2023-07-29T04:04:41;4.50;;;4.10;;
6973;SDS011;3527;52.376;8.990;2023-07-29T04:07:10;4.37;;;3.53;;
6973;SDS011;3527;52.376;8.990;2023-07-29T04:09:37;4.97;;;4.33;;
6973;SDS011;3527;52.376;8.990;2023-07-29T04:12:04;5.27;;;4.17;;
6973;SDS011;3527;52.376;8.990;2023-07-29T04:14:31;6.30;;;4.30;;
6973;SDS011;3527;52.376;8.990;2023-07-29T04:17:18;6.87;;;3.83;;
6973;SDS011;3527;52.376;8.990;2023-07-29T04:20:05;4.20;;;3.80;;
6973;SDS011;3527;52.376;8.990;2023-07-29T04:22:52;3.77;;;3.07;;
6973;SDS011;3527;52.376;8.990;2023-07-29T04:25:19;3.60;;;3.30;;
6973;SDS011;3527;52.376;8.990;2023-07-29T04:28:06;4.80;;;3.40;;
6973;SDS011;3527;52.376;8.990;2023-07-29T04:30:53;4.43;;;3.20;;
6973;SDS011;3527;52.376;8.990;2023-07-29T04:33:41;3.90;;;3.50;;
6973;SDS011;3527;52.376;8.990;2023-07-29T04:36:09;4.40;;;3.97;;
6973;SDS011;3527;52.376;8.990;2023-07-29T04:38:55;4.23;;;3.70;;
6973;SDS011;3527;52.376;8.990;2023-07-29T04:41:24;5.37;;;3.47;;
6973;SDS011;3527;52.376;8.990;2023-07-29T04:44:11;3.90;;;3.47;;
6973;SDS011;3527;52.376;8.990;2023-07-29T04:46:38;4.33;;;3.50;;
6973;SDS011;3527;52.376;8.990;2023-07-29T04:49:05;4.20;;;3.77;;
6973;SDS011;3527;52.376;8.990;2023-07-29T04:51:32;3.67;;;3.13;;
6973;SDS011;3527;52.376;8.990;2023-07-29T04:53:59;3.37;;;3.07;;
6973;SDS011;3527;52.376;8.990;2023-07-29T04:56:26;3.60;;;3.30;;
6973;SDS011;3527;52.376;8.990;2023-07-29T04:58:52;5.20;;;3.87;;
6973;SDS011;3527;52.376;8.990;2023-07-29T05:01:20;3.93;;;3.30;;
6973;SDS011;3527;52.376;8.990;2023-07-29T05:03:47;5.40;;;3.60;;
6973;SDS011;3527;52.376;8.990;2023-07-29T05:06:14;4.03;;;3.20;;
6973;SDS011;3527;52.376;8.990;2023-07-29T05:08:40;3.80;;;3.33;;
6973;SDS011;3527;52.376;8.990;2023-07-29T05:11:07;4.67;;;3.70;;
6973;SDS011;3527;52.376;8.990;2023-07-29T05:13:34;4.40;;;3.77;;
6973;SDS011;3527;52.376;8.990;2023-07-29T05:16:01;5.23;;;3.20;;
6973;SDS011;3527;52.376;8.990;2023-07-29T05:18:28;4.40;;;3.70;;
6973;SDS011;3527;52.376;8.990;2023-07-29T05:20:54;3.53;;;3.23;;
6973;SDS011;3527;52.376;8.990;2023-07-29T05:23:21;4.90;;;3.57;;
6973;SDS011;3527;52.376;8.990;2023-07-29T05:25:48;3.33;;;2.97;;
6973;SDS011;3527;52.376;8.990;2023-07-29T05:28:15;4.07;;;3.03;;
6973;SDS011;3527;52.376;8.990;2023-07-29T05:30:43;3.13;;;2.80;;
6973;SDS011;3527;52.376;8.990;2023-07-29T05:33:10;3.47;;;3.03;;
6973;SDS011;3527;52.376;8.990;2023-07-29T05:35:37;2.90;;;2.70;;
6973;SDS011;3527;52.376;8.990;2023-07-29T05:38:04;4.37;;;2.80;;
6973;SDS011;3527;52.376;8.990;2023-07-29T05:40:33;3.80;;;3.10;;
6973;SDS011;3527;52.376;8.990;2023-07-29T05:43:00;3.17;;;2.60;;
6973;SDS011;3527;52.376;8.990;2023-07-29T05:45:26;3.77;;;2.83;;
6973;SDS011;3527;52.376;8.990;2023-07-29T05:47:53;3.00;;;2.80;;
6973;SDS011;3527;52.376;8.990;2023-07-29T05:50:20;4.17;;;2.80;;
6973;SDS011;3527;52.376;8.990;2023-07-29T05:52:47;2.60;;;2.30;;
6973;SDS011;3527;52.376;8.990;2023-07-29T05:55:14;3.20;;;2.43;;
6973;SDS011;3527;52.376;8.990;2023-07-29T05:57:41;3.03;;;2.67;;
6973;SDS011;3527;52.376;8.990;2023-07-29T06:00:09;3.40;;;2.90;;
6973;SDS011;3527;52.376;8.990;2023-07-29T06:02:37;4.53;;;2.80;;
6973;SDS011;3527;52.376;8.990;2023-07-29T06:05:04;3.43;;;2.70;;
6973;SDS011;3527;52.376;8.990;2023-07-29T06:07:31;3.47;;;2.70;;
6973;SDS011;3527;52.376;8.990;2023-07-29T06:09:59;3.53;;;2.67;;
6973;SDS011;3527;52.376;8.990;2023-07-29T06:12:26;4.17;;;2.87;;
6973;SDS011;3527;52.376;8.990;2023-07-29T06:14:53;5.77;;;2.93;;
6973;SDS011;3527;52.376;8.990;2023-07-29T06:17:20;4.87;;;2.70;;
6973;SDS011;3527;52.376;8.990;2023-07-29T06:19:47;2.60;;;2.33;;
6973;SDS011;3527;52.376;8.990;2023-07-29T06:22:13;4.47;;;2.10;;
6973;SDS011;3527;52.376;8.990;2023-07-29T06:24:40;2.40;;;2.20;;
6973;SDS011;3527;52.376;8.990;2023-07-29T06:27:07;3.30;;;2.70;;
6973;SDS011;3527;52.376;8.990;2023-07-29T06:29:34;3.20;;;2.50;;
6973;SDS011;3527;52.376;8.990;2023-07-29T06:32:00;3.00;;;2.30;;
6973;SDS011;3527;52.376;8.990;2023-07-29T06:34:27;4.20;;;2.50;;
6973;SDS011;3527;52.376;8.990;2023-07-29T06:36:54;3.00;;;2.30;;
6973;SDS011;3527;52.376;8.990;2023-07-29T06:39:21;3.53;;;2.30;;
6973;SDS011;3527;52.376;8.990;2023-07-29T06:41:47;3.10;;;2.80;;
6973;SDS011;3527;52.376;8.990;2023-07-29T06:44:14;2.93;;;2.43;;
6973;SDS011;3527;52.376;8.990;2023-07-29T06:46:41;3.43;;;2.63;;
6973;SDS011;3527;52.376;8.990;2023-07-29T06:49:08;3.20;;;2.57;;
6973;SDS011;3527;52.376;8.990;2023-07-29T06:51:35;3.37;;;2.80;;
6973;SDS011;3527;52.376;8.990;2023-07-29T06:54:02;5.90;;;3.00;;
6973;SDS011;3527;52.376;8.990;2023-07-29T06:56:29;3.10;;;2.33;;
6973;SDS011;3527;52.376;8.990;2023-07-29T06:58:56;2.50;;;2.17;;
6973;SDS011;3527;52.376;8.990;2023-07-29T07:01:22;3.97;;;2.40;;
6973;SDS011;3527;52.376;8.990;2023-07-29T07:03:49;3.43;;;2.50;;
6973;SDS011;3527;52.376;8.990;2023-07-29T07:06:16;2.20;;;2.00;;
6973;SDS011;3527;52.376;8.990;2023-07-29T07:08:43;3.00;;;2.50;;
6973;SDS011;3527;52.376;8.990;2023-07-29T07:11:10;5.67;;;2.37;;
6973;SDS011;3527;52.376;8.990;2023-07-29T07:13:37;3.80;;;2.30;;
6973;SDS011;3527;52.376;8.990;2023-07-29T07:16:04;2.37;;;2.17;;
6973;SDS011;3527;52.376;8.990;2023-07-29T07:18:31;4.30;;;2.40;;
6973;SDS011;3527;52.376;8.990;2023-07-29T07:20:57;2.60;;;2.30;;
6973;SDS011;3527;52.376;8.990;2023-07-29T07:23:24;3.40;;;2.83;;
6973;SDS011;3527;52.376;8.990;2023-07-29T07:25:52;3.10;;;2.40;;
6973;SDS011;3527;52.376;8.990;2023-07-29T07:28:19;3.07;;;2.37;;
6973;SDS011;3527;52.376;8.990;2023-07-29T07:30:45;3.23;;;2.50;;
6973;SDS011;3527;52.376;8.990;2023-07-29T07:33:12;3.47;;;2.57;;
6973;SDS011;3527;52.376;8.990;2023-07-29T07:35:39;3.40;;;2.63;;
6973;SDS011;3527;52.376;8.990;2023-07-29T07:38:08;3.17;;;2.47;;
6973;SDS011;3527;52.376;8.990;2023-07-29T07:40:36;3.37;;;2.67;;
6973;SDS011;3527;52.376;8.990;2023-07-29T07:43:02;3.47;;;2.60;;
6973;SDS011;3527;52.376;8.990;2023-07-29T07:45:29;3.67;;;2.87;;
6973;SDS011;3527;52.376;8.990;2023-07-29T07:47:59;3.13;;;2.83;;
6973;SDS011;3527;52.376;8.990;2023-07-29T07:50:28;3.40;;;2.67;;
6973;SDS011;3527;52.376;8.990;2023-07-29T07:52:56;3.70;;;2.70;;
6973;SDS011;3527;52.376;8.990;2023-07-29T07:55:22;3.97;;;2.90;;
6973;SDS011;3527;52.376;8.990;2023-07-29T07:57:50;3.40;;;3.10;;
6973;SDS011;3527;52.376;8.990;2023-07-29T08:00:17;3.83;;;2.90;;
6973;SDS011;3527;52.376;8.990;2023-07-29T08:02:46;7.63;;;6.63;;
6973;SDS011;3527;52.376;8.990;2023-07-29T08:05:12;7.80;;;6.13;;
6973;SDS011;3527;52.376;8.990;2023-07-29T08:07:40;8.63;;;7.33;;
6973;SDS011;3527;52.376;8.990;2023-07-29T08:10:07;8.13;;;7.33;;
6973;SDS011;3527;52.376;8.990;2023-07-29T08:12:34;9.60;;;7.17;;
6973;SDS011;3527;52.376;8.990;2023-07-29T08:15:01;7.70;;;6.83;;
6973;SDS011;3527;52.376;8.990;2023-07-29T08:17:28;7.70;;;6.83;;
6973;SDS011;3527;52.376;8.990;2023-07-29T08:19:55;7.37;;;6.67;;
6973;SDS011;3527;52.376;8.990;2023-07-29T08:22:21;7.95;;;7.15;;
6973;SDS011;3527;52.376;8.990;2023-07-29T08:24:48;14.82;;;8.30;;
6973;SDS011;3527;52.376;8.990;2023-07-29T08:27:15;20.60;;;10.03;;
6973;SDS011;3527;52.376;8.990;2023-07-29T08:29:42;16.60;;;9.47;;
6973;SDS011;3527;52.376;8.990;2023-07-29T08:32:08;12.13;;;6.90;;
6973;SDS011;3527;52.376;8.990;2023-07-29T08:34:35;11.20;;;6.17;;
6973;SDS011;3527;52.376;8.990;2023-07-29T08:37:02;8.27;;;5.53;;
6973;SDS011;3527;52.376;8.990;2023-07-29T08:39:29;8.50;;;6.63;;
6973;SDS011;3527;52.376;8.990;2023-07-29T08:42:03;7.37;;;6.43;;
6973;SDS011;3527;52.376;8.990;2023-07-29T08:44:41;10.37;;;6.67;;
6973;SDS011;3527;52.376;8.990;2023-07-29T08:47:09;10.63;;;7.10;;
6973;SDS011;3527;52.376;8.990;2023-07-29T08:49:38;8.57;;;7.67;;
6973;SDS011;3527;52.376;8.990;2023-07-29T08:52:05;9.27;;;7.37;;
6973;SDS011;3527;52.376;8.990;2023-07-29T08:54:33;7.83;;;6.80;;
6973;SDS011;3527;52.376;8.990;2023-07-29T08:57:04;8.80;;;7.70;;
6973;SDS011;3527;52.376;8.990;2023-07-29T08:59:32;12.23;;;8.60;;
6973;SDS011;3527;52.376;8.990;2023-07-29T09:01:59;8.97;;;7.80;;
6973;SDS011;3527;52.376;8.990;2023-07-29T09:04:26;9.13;;;7.70;;
6973;SDS011;3527;52.376;8.990;2023-07-29T09:06:55;8.63;;;7.13;;
6973;SDS011;3527;52.376;8.990;2023-07-29T09:09:24;8.50;;;7.20;;
6973;SDS011;3527;52.376;8.990;2023-07-29T09:11:52;9.60;;;6.93;;
6973;SDS011;3527;52.376;8.990;2023-07-29T09:14:18;7.97;;;7.17;;
6973;SDS011;3527;52.376;8.990;2023-07-29T09:16:46;7.20;;;6.47;;
6973;SDS011;3527;52.376;8.990;2023-07-29T09:19:13;8.02;;;7.13;;
6973;SDS011;3527;52.376;8.990;2023-07-29T09:21:40;6.47;;;5.87;;
6973;SDS011;3527;52.376;8.990;2023-07-29T09:24:07;6.10;;;4.35;;
6973;SDS011;3527;52.376;8.990;2023-07-29T09:26:35;3.95;;;3.65;;
6973;SDS011;3527;52.376;8.990;2023-07-29T09:29:03;4.93;;;4.20;;
6973;SDS011;3527;52.376;8.990;2023-07-29T09:31:30;4.90;;;4.45;;
6973;SDS011;3527;52.376;8.990;2023-07-29T09:33:57;3.80;;;3.30;;
6973;SDS011;3527;52.376;8.990;2023-07-29T09:36:26;6.23;;;4.23;;
6973;SDS011;3527;52.376;8.990;2023-07-29T09:38:54;5.10;;;3.97;;
6973;SDS011;3527;52.376;8.990;2023-07-29T09:41:22;3.63;;;3.33;;
6973;SDS011;3527;52.376;8.990;2023-07-29T09:44:00;3.45;;;3.15;;
6973;SDS011;3527;52.376;8.990;2023-07-29T09:46:33;3.58;;;3.15;;
6973;SDS011;3527;52.376;8.990;2023-07-29T09:49:06;3.78;;;3.00;;
6973;SDS011;3527;52.376;8.990;2023-07-29T09:51:38;3.45;;;2.80;;
6973;SDS011;3527;52.376;8.990;2023-07-29T09:54:06;3.03;;;2.50;;
6973;SDS011;3527;52.376;8.990;2023-07-29T09:56:33;3.95;;;2.60;;
6973;SDS011;3527;52.376;8.990;2023-07-29T09:59:00;3.40;;;2.88;;
6973;SDS011;3527;52.376;8.990;2023-07-29T10:01:31;2.58;;;2.30;;
6973;SDS011;3527;52.376;8.990;2023-07-29T10:03:58;6.30;;;2.60;;
6973;SDS011;3527;52.376;8.990;2023-07-29T10:06:28;2.53;;;2.33;;
6973;SDS011;3527;52.376;8.990;2023-07-29T10:08:56;2.92;;;2.47;;
6973;SDS011;3527;52.376;8.990;2023-07-29T10:11:23;3.55;;;2.50;;
6973;SDS011;3527;52.376;8.990;2023-07-29T10:13:51;2.90;;;2.10;;
6973;SDS011;3527;52.376;8.990;2023-07-29T10:16:34;2.40;;;1.50;;
6973;SDS011;3527;52.376;8.990;2023-07-29T10:19:04;1.83;;;1.45;;
6973;SDS011;3527;52.376;8.990;2023-07-29T10:21:31;1.67;;;1.38;;
6973;SDS011;3527;52.376;8.990;2023-07-29T10:24:00;1.77;;;1.23;;
6973;SDS011;3527;52.376;8.990;2023-07-29T10:26:29;1.60;;;0.90;;
6973;SDS011;3527;52.376;8.990;2023-07-29T10:29:00;1.23;;;0.95;;
6973;SDS011;3527;52.376;8.990;2023-07-29T10:31:32;1.40;;;0.98;;
6973;SDS011;3527;52.376;8.990;2023-07-29T10:34:00;2.03;;;1.00;;
6973;SDS011;3527;52.376;8.990;2023-07-29T10:36:27;1.00;;;0.88;;
6973;SDS011;3527;52.376;8.990;2023-07-29T10:38:55;1.27;;;0.70;;
6973;SDS011;3527;52.376;8.990;2023-07-29T10:41:22;1.10;;;0.90;;
6973;SDS011;3527;52.376;8.990;2023-07-29T10:43:49;1.52;;;1.02;;
6973;SDS011;3527;52.376;8.990;2023-07-29T10:46:23;2.05;;;0.82;;
6973;SDS011;3527;52.376;8.990;2023-07-29T10:54:22;1.50;;;0.77;;
6973;SDS011;3527;52.376;8.990;2023-07-29T10:56:53;1.17;;;0.80;;
6973;SDS011;3527;52.376;8.990;2023-07-29T10:59:32;2.80;;;1.13;;
6973;SDS011;3527;52.376;8.990;2023-07-29T11:02:17;1.75;;;0.90;;
6973;SDS011;3527;52.376;8.990;2023-07-29T11:04:46;1.13;;;0.90;;
6973;SDS011;3527;52.376;8.990;2023-07-29T11:09:41;1.55;;;0.90;;
6973;SDS011;3527;52.376;8.990;2023-07-29T11:17:36;1.38;;;0.90;;
6973;SDS011;3527;52.376;8.990;2023-07-29T11:22:54;1.20;;;1.10;;
6973;SDS011;3527;52.376;8.990;2023-07-29T11:25:23;1.42;;;1.00;;
6973;SDS011;3527;52.376;8.990;2023-07-29T11:27:52;1.92;;;1.10;;
6973;SDS011;3527;52.376;8.990;2023-07-29T11:30:21;1.35;;;0.80;;
6973;SDS011;3527;52.376;8.990;2023-07-29T11:32:55;2.08;;;0.80;;
6973;SDS011;3527;52.376;8.990;2023-07-29T11:35:23;1.33;;;1.00;;
6973;SDS011;3527;52.376;8.990;2023-07-29T11:37:51;1.48;;;0.80;;
6973;SDS011;3527;52.376;8.990;2023-07-29T11:40:21;1.20;;;0.80;;
6973;SDS011;3527;52.376;8.990;2023-07-29T11:42:50;1.55;;;0.90;;
6973;SDS011;3527;52.376;8.990;2023-07-29T11:45:18;1.35;;;0.77;;
6973;SDS011;3527;52.376;8.990;2023-07-29T11:47:46;1.30;;;0.80;;
6973;SDS011;3527;52.376;8.990;2023-07-29T11:50:14;1.20;;;0.93;;
6973;SDS011;3527;52.376;8.990;2023-07-29T11:52:42;1.35;;;1.10;;
6973;SDS011;3527;52.376;8.990;2023-07-29T11:55:11;1.20;;;0.90;;
6973;SDS011;3527;52.376;8.990;2023-07-29T11:57:39;1.85;;;0.90;;
6973;SDS011;3527;52.376;8.990;2023-07-29T12:00:09;1.10;;;0.80;;
6973;SDS011;3527;52.376;8.990;2023-07-29T12:02:40;1.40;;;1.00;;
6973;SDS011;3527;52.376;8.990;2023-07-29T12:05:08;1.55;;;0.95;;
6973;SDS011;3527;52.376;8.990;2023-07-29T12:07:40;1.15;;;0.82;;
6973;SDS011;3527;52.376;8.990;2023-07-29T12:10:09;1.90;;;0.90;;
6973;SDS011;3527;52.376;8.990;2023-07-29T12:12:46;0.90;;;0.80;;
6973;SDS011;3527;52.376;8.990;2023-07-29T12:15:23;1.00;;;0.70;;
6973;SDS011;3527;52.376;8.990;2023-07-29T12:17:55;1.38;;;0.90;;
6973;SDS011;3527;52.376;8.990;2023-07-29T12:20:24;2.75;;;0.90;;
6973;SDS011;3527;52.376;8.990;2023-07-29T12:22:52;1.30;;;0.90;;
6973;SDS011;3527;52.376;8.990;2023-07-29T12:25:20;1.98;;;1.08;;
6973;SDS011;3527;52.376;8.990;2023-07-29T12:27:47;1.40;;;0.77;;
6973;SDS011;3527;52.376;8.990;2023-07-29T12:30:14;1.55;;;1.00;;
6973;SDS011;3527;52.376;8.990;2023-07-29T12:32:44;0.90;;;0.80;;
6973;SDS011;3527;52.376;8.990;2023-07-29T12:35:13;1.95;;;0.98;;
6973;SDS011;3527;52.376;8.990;2023-07-29T12:37:40;1.42;;;0.98;;
6973;SDS011;3527;52.376;8.990;2023-07-29T12:40:25;1.00;;;0.77;;
6973;SDS011;3527;52.376;8.990;2023-07-29T12:42:53;1.67;;;1.00;;
6973;SDS011;3527;52.376;8.990;2023-07-29T12:45:21;2.33;;;1.10;;
6973;SDS011;3527;52.376;8.990;2023-07-29T12:47:50;1.40;;;0.85;;
6973;SDS011;3527;52.376;8.990;2023-07-29T12:50:17;1.25;;;1.00;;
6973;SDS011;3527;52.376;8.990;2023-07-29T12:52:44;1.05;;;0.82;;
6973;SDS011;3527;52.376;8.990;2023-07-29T12:55:14;1.40;;;0.90;;
6973;SDS011;3527;52.376;8.990;2023-07-29T12:57:51;2.67;;;0.98;;
6973;SDS011;3527;52.376;8.990;2023-07-29T13:00:20;1.40;;;1.05;;
6973;SDS011;3527;52.376;8.990;2023-07-29T13:02:48;1.48;;;1.13;;
6973;SDS011;3527;52.376;8.990;2023-07-29T13:05:15;1.80;;;1.23;;
6973;SDS011;3527;52.376;8.990;2023-07-29T13:07:43;1.27;;;1.02;;
6973;SDS011;3527;52.376;8.990;2023-07-29T13:10:11;1.40;;;1.02;;
6973;SDS011;3527;52.376;8.990;2023-07-29T13:12:38;1.55;;;1.00;;
6973;SDS011;3527;52.376;8.990;2023-07-29T13:15:05;1.88;;;1.35;;
6973;SDS011;3527;52.376;8.990;2023-07-29T13:17:33;2.53;;;1.10;;
6973;SDS011;3527;52.376;8.990;2023-07-29T13:20:00;1.80;;;1.02;;
6973;SDS011;3527;52.376;8.990;2023-07-29T13:22:27;1.60;;;1.27;;
6973;SDS011;3527;52.376;8.990;2023-07-29T13:24:54;1.60;;;1.10;;
6973;SDS011;3527;52.376;8.990;2023-07-29T13:27:21;2.38;;;1.15;;
6973;SDS011;3527;52.376;8.990;2023-07-29T13:29:50;3.50;;;1.08;;
6973;SDS011;3527;52.376;8.990;2023-07-29T13:32:17;2.53;;;0.98;;
6973;SDS011;3527;52.376;8.990;2023-07-29T13:34:44;1.45;;;1.00;;
6973;SDS011;3527;52.376;8.990;2023-07-29T13:37:11;1.77;;;0.90;;
6973;SDS011;3527;52.376;8.990;2023-07-29T13:39:38;1.50;;;1.10;;
6973;SDS011;3527;52.376;8.990;2023-07-29T13:42:05;1.30;;;1.00;;
6973;SDS011;3527;52.376;8.990;2023-07-29T13:44:32;2.80;;;1.40;;
6973;SDS011;3527;52.376;8.990;2023-07-29T13:46:59;1.27;;;1.10;;
6973;SDS011;3527;52.376;8.990;2023-07-29T13:49:26;1.23;;;1.02;;
6973;SDS011;3527;52.376;8.990;2023-07-29T13:51:53;1.88;;;1.20;;
6973;SDS011;3527;52.376;8.990;2023-07-29T13:54:20;1.55;;;1.10;;
6973;SDS011;3527;52.376;8.990;2023-07-29T13:56:48;3.97;;;1.20;;
6973;SDS011;3527;52.376;8.990;2023-07-29T13:59:14;1.95;;;1.13;;
6973;SDS011;3527;52.376;8.990;2023-07-29T14:01:41;1.92;;;0.93;;
6973;SDS011;3527;52.376;8.990;2023-07-29T14:04:08;2.03;;;1.20;;
6973;SDS011;3527;52.376;8.990;2023-07-29T14:06:35;4.50;;;1.33;;
6973;SDS011;3527;52.376;8.990;2023-07-29T14:09:12;1.38;;;1.10;;
6973;SDS011;3527;52.376;8.990;2023-07-29T14:11:39;1.38;;;1.10;;
6973;SDS011;3527;52.376;8.990;2023-07-29T14:14:06;1.38;;;1.20;;
6973;SDS011;3527;52.376;8.990;2023-07-29T14:16:34;1.52;;;1.10;;
6973;SDS011;3527;52.376;8.990;2023-07-29T14:19:01;2.67;;;1.25;;
6973;SDS011;3527;52.376;8.990;2023-07-29T14:21:28;2.33;;;1.35;;
6973;SDS011;3527;52.376;8.990;2023-07-29T14:23:55;1.90;;;1.20;;
6973;SDS011;3527;52.376;8.990;2023-07-29T14:26:22;1.58;;;1.30;;
6973;SDS011;3527;52.376;8.990;2023-07-29T14:28:49;1.80;;;1.60;;
6973;SDS011;3527;52.376;8.990;2023-07-29T14:31:17;1.48;;;1.25;;
6973;SDS011;3527;52.376;8.990;2023-07-29T14:33:44;1.65;;;1.35;;
6973;SDS011;3527;52.376;8.990;2023-07-29T14:36:12;1.83;;;1.35;;
6973;SDS011;3527;52.376;8.990;2023-07-29T14:38:39;1.98;;;1.42;;
6973;SDS011;3527;52.376;8.990;2023-07-29T14:41:06;1.73;;;1.40;;
6973;SDS011;3527;52.376;8.990;2023-07-29T14:43:33;3.60;;;1.55;;
6973;SDS011;3527;52.376;8.990;2023-07-29T14:46:01;1.77;;;1.48;;
6973;SDS011;3527;52.376;8.990;2023-07-29T14:48:29;1.70;;;1.30;;
6973;SDS011;3527;52.376;8.990;2023-07-29T14:50:55;7.25;;;2.97;;
6973;SDS011;3527;52.376;8.990;2023-07-29T14:53:22;2.35;;;1.58;;
6973;SDS011;3527;52.376;8.990;2023-07-29T14:55:49;1.75;;;1.48;;
6973;SDS011;3527;52.376;8.990;2023-07-29T14:58:16;1.52;;;1.42;;
6973;SDS011;3527;52.376;8.990;2023-07-29T15:00:43;4.22;;;1.55;;
6973;SDS011;3527;52.376;8.990;2023-07-29T15:03:10;2.45;;;1.38;;
6973;SDS011;3527;52.376;8.990;2023-07-29T15:05:37;2.00;;;1.52;;
6973;SDS011;3527;52.376;8.990;2023-07-29T15:08:03;1.73;;;1.40;;
6973;SDS011;3527;52.376;8.990;2023-07-29T15:10:30;2.33;;;1.48;;
6973;SDS011;3527;52.376;8.990;2023-07-29T15:12:57;2.42;;;1.40;;
6973;SDS011;3527;52.376;8.990;2023-07-29T15:15:24;3.10;;;1.40;;
6973;SDS011;3527;52.376;8.990;2023-07-29T15:17:51;1.55;;;1.40;;
6973;SDS011;3527;52.376;8.990;2023-07-29T15:20:17;1.77;;;1.42;;
6973;SDS011;3527;52.376;8.990;2023-07-29T15:22:44;1.80;;;1.35;;
6973;SDS011;3527;52.376;8.990;2023-07-29T15:25:11;1.58;;;1.20;;
6973;SDS011;3527;52.376;8.990;2023-07-29T15:27:38;1.77;;;1.30;;
6973;SDS011;3527;52.376;8.990;2023-07-29T15:30:06;2.67;;;1.40;;
6973;SDS011;3527;52.376;8.990;2023-07-29T15:32:33;1.77;;;1.35;;
6973;SDS011;3527;52.376;8.990;2023-07-29T15:35:00;1.70;;;1.45;;
6973;SDS011;3527;52.376;8.990;2023-07-29T15:37:27;1.67;;;1.40;;
6973;SDS011;3527;52.376;8.990;2023-07-29T15:39:54;1.48;;;1.30;;
6973;SDS011;3527;52.376;8.990;2023-07-29T15:42:21;1.60;;;1.30;;
6973;SDS011;3527;52.376;8.990;2023-07-29T15:44:48;2.25;;;1.40;;